createdAt,value
2023-04-02T00:00:16.983Z,6.82
2023-04-02T00:04:36.644Z,6.79
2023-04-02T00:08:48.747Z,6.74
2023-04-02T00:12:46.657Z,6.66
2023-04-02T00:16:46.736Z,6.59
2023-04-02T00:20:51.695Z,6.57
2023-04-02T00:24:49.603Z,6.56
2023-04-02T00:28:47.654Z,6.54
2023-04-02T00:32:47.746Z,6.51
2023-04-02T00:36:50.786Z,6.48
2023-04-02T00:40:48.658Z,6.48
2023-04-02T00:44:49.575Z,6.47
2023-04-02T00:48:47.575Z,6.47
2023-04-02T00:52:47.618Z,6.46
2023-04-02T00:56:57.437Z,6.43
2023-04-02T01:00:55.584Z,6.39
2023-04-02T01:04:53.552Z,6.38
2023-04-02T01:09:18.527Z,6.37
2023-04-02T01:13:39.575Z,6.31
2023-04-02T01:18:05.635Z,6.27
2023-04-02T01:22:37.540Z,6.24
2023-04-02T01:26:48.552Z,6.21
2023-04-02T01:30:50.531Z,6.22
2023-04-02T01:34:51.514Z,6.20
2023-04-02T01:38:58.555Z,6.20
2023-04-02T01:43:14.477Z,6.20
2023-04-02T01:47:13.560Z,6.19
2023-04-02T01:51:13.476Z,6.18
2023-04-02T01:55:11.497Z,6.16
2023-04-02T01:59:10.493Z,6.12
2023-04-02T02:03:08.714Z,6.08
2023-04-02T02:07:07.483Z,6.03
2023-04-02T02:11:05.494Z,5.96
2023-04-02T02:15:05.462Z,5.93
2023-04-02T02:19:07.468Z,5.90
2023-04-02T02:23:06.558Z,5.87
2023-04-02T02:27:19.574Z,5.87
2023-04-02T02:31:35.529Z,5.87
2023-04-02T02:35:38.831Z,5.86
2023-04-02T02:39:41.570Z,5.85
2023-04-02T02:43:41.499Z,5.83
2023-04-02T02:47:45.614Z,5.82
2023-04-02T02:51:54.450Z,5.76
2023-04-02T02:55:58.418Z,5.71
2023-04-02T03:00:01.420Z,5.68
2023-04-02T03:04:01.444Z,5.67
2023-04-02T03:08:00.475Z,5.67
2023-04-02T03:12:16.385Z,5.66
2023-04-02T03:16:23.412Z,5.66
2023-04-02T03:20:39.490Z,5.65
2023-04-02T03:24:54.481Z,5.63
2023-04-02T03:28:59.376Z,5.61
2023-04-02T03:32:59.486Z,5.52
2023-04-02T03:37:13.390Z,5.48
2023-04-02T03:41:26.418Z,5.47
2023-04-02T03:45:35.495Z,5.46
2023-04-02T03:49:38.474Z,5.45
2023-04-02T03:53:41.357Z,5.47
2023-04-02T03:57:51.346Z,5.48
2023-04-02T04:01:58.361Z,5.46
2023-04-02T04:06:06.345Z,5.46
2023-04-02T04:10:06.345Z,5.46
2023-04-02T04:14:11.396Z,5.47
2023-04-02T04:18:44.379Z,5.46
2023-04-02T04:22:43.407Z,5.45
2023-04-02T04:27:00.311Z,5.43
2023-04-02T04:31:27.379Z,5.44
2023-04-02T04:35:52.278Z,5.43
2023-04-02T04:40:12.301Z,5.40
2023-04-02T04:44:29.255Z,5.39
2023-04-02T04:48:36.491Z,5.42
2023-04-02T04:52:36.329Z,5.40
2023-04-02T04:56:40.265Z,5.39
2023-04-02T05:00:43.265Z,5.38
2023-04-02T05:04:48.287Z,5.37
2023-04-02T05:08:51.227Z,5.37
2023-04-02T05:13:04.280Z,5.38
2023-04-02T05:17:28.229Z,5.41
2023-04-02T05:21:36.262Z,5.41
2023-04-02T05:25:41.193Z,5.42
2023-04-02T05:29:44.434Z,5.42
2023-04-02T05:33:44.195Z,5.39
2023-04-02T05:37:45.233Z,5.32
2023-04-02T05:41:50.266Z,5.31
2023-04-02T05:45:57.186Z,5.34
2023-04-02T05:50:07.161Z,5.33
2023-04-02T05:54:14.300Z,5.29
2023-04-02T05:58:34.460Z,5.27
2023-04-02T06:02:46.200Z,5.27
2023-04-02T06:06:56.171Z,5.26
2023-04-02T06:11:06.196Z,5.21
2023-04-02T06:15:05.146Z,5.19
2023-04-02T06:19:04.228Z,5.15
2023-04-02T06:23:10.109Z,5.23
2023-04-02T06:27:14.214Z,5.29
2023-04-02T06:31:17.121Z,5.30
2023-04-02T06:35:15.178Z,5.32
2023-04-02T06:39:26.169Z,5.37
2023-04-02T06:43:34.148Z,5.27
2023-04-02T06:47:56.147Z,5.18
2023-04-02T06:52:09.143Z,5.14
2023-04-02T06:56:42.108Z,5.13
2023-04-02T07:00:54.137Z,5.15
2023-04-02T07:05:00.193Z,5.12
2023-04-02T07:09:00.100Z,5.04
2023-04-02T07:12:59.167Z,5.00
2023-04-02T07:16:58.068Z,5.01
2023-04-02T07:20:56.176Z,5.06
2023-04-02T07:24:55.089Z,5.05
2023-04-02T07:28:53.127Z,5.02
2023-04-02T07:32:51.145Z,4.99
2023-04-02T07:36:49.063Z,4.94
2023-04-02T07:40:47.084Z,4.97
2023-04-02T07:44:45.053Z,5.00
2023-04-02T07:48:43.040Z,4.92
2023-04-02T07:52:41.011Z,4.89
2023-04-02T07:56:39.085Z,4.87
2023-04-02T08:00:38.082Z,4.85
2023-04-02T08:04:37.089Z,4.93
2023-04-02T08:08:38.994Z,4.85
2023-04-02T08:12:38.067Z,4.92
2023-04-02T08:16:37.095Z,5.00
2023-04-02T08:20:37.094Z,4.91
2023-04-02T08:24:36.096Z,4.85
2023-04-02T08:28:33.982Z,4.84
2023-04-02T08:32:33.002Z,4.85
2023-04-02T08:36:33.037Z,4.89
2023-04-02T08:40:45.964Z,4.89
2023-04-02T08:45:24.371Z,4.92
2023-04-02T08:49:33.941Z,5.03
2023-04-02T08:53:35.966Z,4.98
2023-04-02T08:57:54.954Z,5.02
2023-04-02T09:02:16.981Z,5.06
2023-04-02T09:06:18.908Z,5.11
2023-04-02T09:10:17.083Z,5.05
2023-04-02T09:14:20.881Z,5.12
2023-04-02T09:18:29.974Z,5.29
2023-04-02T09:22:44.890Z,5.42
2023-04-02T09:26:45.924Z,5.54
2023-04-02T09:30:43.893Z,5.63
2023-04-02T09:34:47.897Z,5.63
2023-04-02T09:38:45.868Z,5.69
2023-04-02T09:42:47.047Z,5.67
2023-04-02T09:46:44.884Z,5.72
2023-04-02T09:50:46.883Z,5.54
2023-04-02T09:54:47.881Z,5.49
2023-04-02T09:58:45.945Z,5.39
2023-04-02T10:02:44.908Z,5.38
2023-04-02T10:06:22.552Z,5.31
2023-04-02T10:09:46.528Z,5.33
2023-04-02T10:13:17.510Z,5.47
2023-04-02T10:16:46.941Z,5.68
2023-04-02T10:20:24.130Z,5.68
2023-04-02T10:23:48.112Z,5.44
2023-04-02T10:27:25.700Z,5.38
2023-04-02T10:31:18.224Z,5.45
2023-04-02T10:34:48.827Z,5.38
2023-04-02T10:38:39.900Z,5.23
2023-04-02T10:42:31.750Z,5.17
2023-04-02T10:46:01.437Z,5.16
2023-04-02T10:49:49.034Z,5.10
2023-04-02T10:53:19.486Z,5.02
2023-04-02T10:59:31.519Z,5.09
2023-04-02T11:02:58.531Z,5.09
2023-04-02T11:06:28.611Z,5.09
2023-04-02T11:09:57.173Z,5.11
2023-04-02T11:13:49.127Z,5.20
2023-04-02T11:17:21.930Z,5.23
2023-04-02T11:20:48.900Z,5.17
2023-04-02T11:24:31.761Z,5.08
2023-04-02T11:27:55.755Z,5.03
2023-04-02T11:31:22.911Z,4.99
2023-04-02T11:34:59.831Z,4.91
2023-04-02T11:38:29.435Z,4.87
2023-04-02T11:42:06.667Z,4.84
2023-04-02T11:45:31.152Z,4.94
2023-04-02T11:49:30.715Z,5.00
2023-04-02T11:52:55.689Z,5.08
2023-04-02T11:57:03.475Z,5.11
2023-04-02T12:00:27.611Z,5.12
2023-04-02T12:04:16.167Z,5.02
2023-04-02T12:08:07.699Z,4.90
2023-04-02T12:11:42.269Z,4.89
2023-04-02T12:15:26.420Z,4.82
2023-04-02T12:18:55.061Z,4.77
2023-04-02T12:22:26.362Z,4.79
2023-04-02T12:26:03.517Z,4.82
2023-04-02T12:29:29.377Z,4.83
2023-04-02T12:33:29.734Z,4.76
2023-04-02T12:37:35.748Z,4.84
2023-04-02T12:41:47.785Z,4.82
2023-04-02T12:45:48.707Z,4.88
2023-04-02T12:49:57.710Z,4.79
2023-04-02T12:53:56.802Z,4.76
2023-04-02T12:57:56.701Z,4.83
2023-04-02T13:02:10.691Z,4.72
2023-04-02T13:06:10.705Z,4.70
2023-04-02T13:10:10.824Z,4.67
2023-04-02T13:14:16.686Z,4.65
2023-04-02T13:18:36.664Z,4.72
2023-04-02T13:22:45.800Z,4.70
2023-04-02T13:26:44.677Z,4.56
2023-04-02T13:30:43.668Z,4.61
2023-04-02T13:34:43.684Z,4.64
2023-04-02T13:38:41.680Z,4.60
2023-04-02T13:42:39.763Z,4.59
2023-04-02T13:46:40.743Z,4.54
2023-04-02T13:50:38.909Z,4.55
2023-04-02T13:54:45.728Z,4.57
2023-04-02T13:58:43.608Z,4.56
2023-04-02T14:02:41.657Z,4.49
2023-04-02T14:07:01.641Z,4.42
2023-04-02T14:11:11.608Z,4.42
2023-04-02T14:15:18.599Z,4.43
2023-04-02T14:19:34.671Z,4.46
2023-04-02T14:23:47.594Z,4.51
2023-04-02T14:27:58.658Z,4.55
2023-04-02T14:32:34.615Z,4.47
2023-04-02T14:37:08.621Z,4.49
2023-04-02T14:41:09.552Z,4.44
2023-04-02T14:45:19.614Z,4.37
2023-04-02T14:49:39.613Z,4.27
2023-04-02T14:54:15.629Z,4.17
2023-04-02T14:58:19.590Z,4.00
2023-04-02T15:02:39.625Z,3.93
2023-04-02T15:06:45.513Z,3.87
2023-04-02T15:10:48.578Z,3.82
2023-04-02T15:14:51.660Z,3.74
2023-04-02T15:18:49.728Z,3.69
2023-04-02T15:23:01.539Z,3.65
2023-04-02T15:27:25.507Z,3.63
2023-04-02T15:31:27.603Z,3.63
2023-04-02T15:35:47.641Z,3.53
2023-04-02T15:39:56.552Z,3.50
2023-04-02T15:44:21.636Z,3.47
2023-04-02T15:48:37.479Z,3.46
2023-04-02T15:53:09.673Z,3.46
2023-04-02T15:57:26.640Z,3.45
2023-04-02T16:01:43.512Z,3.42
2023-04-02T16:06:24.436Z,3.41
2023-04-02T16:10:42.417Z,3.41
2023-04-02T16:14:43.415Z,3.41
2023-04-02T16:19:15.852Z,3.44
2023-04-02T16:23:24.469Z,3.43
2023-04-02T16:27:33.508Z,3.43
2023-04-02T16:32:00.454Z,3.42
2023-04-02T16:36:23.557Z,3.38
2023-04-02T16:40:40.396Z,3.36
2023-04-02T16:44:50.514Z,3.33
2023-04-02T16:49:19.510Z,3.31
2023-04-02T16:53:33.465Z,3.30
2023-04-02T16:57:46.396Z,3.29
2023-04-02T17:02:12.432Z,3.30
2023-04-02T17:06:20.348Z,3.27
2023-04-02T17:10:56.415Z,3.27
2023-04-02T17:15:17.280Z,3.28
2023-04-02T17:19:27.497Z,3.29
2023-04-02T17:23:28.444Z,3.28
2023-04-02T17:27:38.344Z,3.27
2023-04-02T17:31:47.322Z,3.27
2023-04-02T17:36:13.386Z,3.27
2023-04-02T17:40:11.320Z,3.24
2023-04-02T17:44:15.342Z,3.22
2023-04-02T17:48:17.294Z,3.19
2023-04-02T17:52:30.358Z,3.18
2023-04-02T17:57:10.301Z,3.19
2023-04-02T18:01:32.481Z,3.21
2023-04-02T18:05:44.265Z,3.22
2023-04-02T18:09:52.320Z,3.23
2023-04-02T18:13:54.380Z,3.22
2023-04-02T18:17:58.462Z,3.21
2023-04-02T18:22:16.371Z,3.22
2023-04-02T18:26:33.439Z,3.20
2023-04-02T18:30:34.506Z,3.18
2023-04-02T18:35:09.366Z,3.18
2023-04-02T18:39:26.495Z,3.17
2023-04-02T18:43:50.385Z,3.13
2023-04-02T18:48:16.373Z,3.10
2023-04-02T18:52:16.233Z,3.05
2023-04-02T18:56:33.274Z,3.07
2023-04-02T19:00:41.252Z,3.05
2023-04-02T19:04:46.225Z,3.05
2023-04-02T19:08:58.287Z,3.01
2023-04-02T19:12:56.170Z,2.94
2023-04-02T19:17:14.229Z,2.93
2023-04-02T19:21:21.192Z,2.91
2023-04-02T19:25:43.206Z,2.87
2023-04-02T19:30:09.245Z,2.85
2023-04-02T19:34:24.311Z,2.84
2023-04-02T19:38:39.280Z,2.77
2023-04-02T19:42:59.292Z,2.67
2023-04-02T19:46:58.357Z,2.62
2023-04-02T19:50:56.167Z,2.60
2023-04-02T19:54:55.227Z,2.59
2023-04-02T19:58:53.140Z,2.52
2023-04-02T20:02:52.161Z,2.49
2023-04-02T20:06:50.140Z,2.47
2023-04-02T20:10:48.148Z,2.43
2023-04-02T20:14:46.207Z,2.41
2023-04-02T20:18:44.086Z,2.40
2023-04-02T20:22:44.194Z,2.39
2023-04-02T20:26:42.161Z,2.40
2023-04-02T20:30:40.190Z,2.37
2023-04-02T20:34:38.106Z,2.36
2023-04-02T20:38:36.099Z,2.35
2023-04-02T20:42:34.079Z,2.30
2023-04-02T20:46:32.144Z,2.25
2023-04-02T20:50:30.062Z,2.21
2023-04-02T20:54:28.055Z,2.18
2023-04-02T20:58:30.056Z,2.16
2023-04-02T21:02:28.096Z,2.12
2023-04-02T21:06:34.045Z,2.10
2023-04-02T21:10:33.064Z,2.07
2023-04-02T21:14:32.050Z,2.05
2023-04-02T21:18:30.128Z,1.99
2023-04-02T21:22:27.970Z,1.93
2023-04-02T21:26:32.562Z,1.89
2023-04-02T21:30:32.250Z,1.87
2023-04-02T21:34:30.992Z,1.82
2023-04-02T21:38:28.972Z,1.77
2023-04-02T21:42:27.106Z,1.72
2023-04-02T21:46:25.047Z,1.68
2023-04-02T21:50:24.191Z,1.65
2023-04-02T21:54:22.970Z,1.59
2023-04-02T21:58:20.994Z,1.52
2023-04-02T22:02:18.932Z,1.45
2023-04-02T22:06:19.981Z,1.39
2023-04-02T22:10:17.923Z,1.35
2023-04-02T22:14:15.956Z,1.29
2023-04-02T22:18:13.932Z,1.20
2023-04-02T22:22:12.045Z,1.12
2023-04-02T22:26:10.901Z,1.05
2023-04-02T22:30:08.920Z,0.92
2023-04-02T22:34:08.003Z,0.82
2023-04-02T22:38:05.898Z,0.70
2023-04-02T22:42:03.955Z,0.61
2023-04-02T22:46:01.930Z,0.55
2023-04-02T22:49:59.864Z,0.50
2023-04-02T22:53:57.900Z,0.46
2023-04-02T22:57:56.856Z,0.46
2023-04-02T23:01:54.988Z,0.44
2023-04-02T23:05:53.852Z,0.44
2023-04-02T23:09:51.854Z,0.43
2023-04-02T23:13:50.869Z,0.45
2023-04-02T23:17:48.891Z,0.46
2023-04-02T23:21:46.840Z,0.45
2023-04-02T23:25:44.934Z,0.44
2023-04-02T23:29:42.815Z,0.40
2023-04-02T23:33:40.855Z,0.39
2023-04-02T23:37:38.809Z,0.37
2023-04-02T23:41:37.830Z,0.37
2023-04-02T23:45:35.924Z,0.39
2023-04-02T23:49:34.919Z,0.39
2023-04-02T23:53:32.832Z,0.41
2023-04-02T23:57:30.941Z,0.41
